sensor_id;sensor_type;location;lat;lon;timestamp;P1;durP1;ratioP1;P2;durP2;ratioP2
43124;SDS011;49182;50.788;7.318;2022-12-24T00:01:34;13.68;;;2.70;;
43124;SDS011;49182;50.788;7.318;2022-12-24T00:04:01;16.55;;;2.90;;
43124;SDS011;49182;50.788;7.318;2022-12-24T00:06:27;18.17;;;3.42;;
43124;SDS011;49182;50.788;7.318;2022-12-24T00:08:54;11.25;;;2.03;;
43124;SDS011;49182;50.788;7.318;2022-12-24T00:11:21;12.55;;;2.92;;
43124;SDS011;49182;50.788;7.318;2022-12-24T00:13:47;13.13;;;2.70;;
43124;SDS011;49182;50.788;7.318;2022-12-24T00:16:16;13.13;;;2.22;;
43124;SDS011;49182;50.788;7.318;2022-12-24T00:18:43;15.27;;;2.78;;
43124;SDS011;49182;50.788;7.318;2022-12-24T00:21:12;8.98;;;2.42;;
43124;SDS011;49182;50.788;7.318;2022-12-24T00:23:39;12.77;;;2.60;;
43124;SDS011;49182;50.788;7.318;2022-12-24T00:26:06;14.65;;;3.17;;
43124;SDS011;49182;50.788;7.318;2022-12-24T00:28:33;14.27;;;2.42;;
43124;SDS011;49182;50.788;7.318;2022-12-24T00:31:05;20.23;;;2.97;;
43124;SDS011;49182;50.788;7.318;2022-12-24T00:33:34;11.70;;;1.98;;
43124;SDS011;49182;50.788;7.318;2022-12-24T00:36:01;15.32;;;2.40;;
43124;SDS011;49182;50.788;7.318;2022-12-24T00:38:27;14.75;;;2.88;;
43124;SDS011;49182;50.788;7.318;2022-12-24T00:40:56;15.90;;;2.50;;
43124;SDS011;49182;50.788;7.318;2022-12-24T00:43:24;14.27;;;2.70;;
43124;SDS011;49182;50.788;7.318;2022-12-24T00:45:50;10.48;;;2.78;;
43124;SDS011;49182;50.788;7.318;2022-12-24T00:48:17;12.50;;;3.00;;
43124;SDS011;49182;50.788;7.318;2022-12-24T00:50:45;14.57;;;3.53;;
43124;SDS011;49182;50.788;7.318;2022-12-24T00:53:12;8.25;;;1.88;;
43124;SDS011;49182;50.788;7.318;2022-12-24T00:55:38;14.32;;;3.20;;
43124;SDS011;49182;50.788;7.318;2022-12-24T00:58:05;14.40;;;2.70;;
43124;SDS011;49182;50.788;7.318;2022-12-24T01:00:31;10.73;;;2.38;;
43124;SDS011;49182;50.788;7.318;2022-12-24T01:02:58;15.18;;;2.78;;
43124;SDS011;49182;50.788;7.318;2022-12-24T01:05:25;12.90;;;2.85;;
43124;SDS011;49182;50.788;7.318;2022-12-24T01:07:53;15.82;;;2.13;;
43124;SDS011;49182;50.788;7.318;2022-12-24T01:10:20;12.70;;;2.03;;
43124;SDS011;49182;50.788;7.318;2022-12-24T01:12:47;11.43;;;1.98;;
43124;SDS011;49182;50.788;7.318;2022-12-24T01:15:14;11.18;;;2.15;;
43124;SDS011;49182;50.788;7.318;2022-12-24T01:17:40;21.55;;;2.47;;
43124;SDS011;49182;50.788;7.318;2022-12-24T01:20:09;13.57;;;2.42;;
43124;SDS011;49182;50.788;7.318;2022-12-24T01:25:07;14.65;;;2.00;;
43124;SDS011;49182;50.788;7.318;2022-12-24T01:27:35;15.55;;;2.72;;
43124;SDS011;49182;50.788;7.318;2022-12-24T01:30:01;19.08;;;2.25;;
43124;SDS011;49182;50.788;7.318;2022-12-24T01:32:28;13.48;;;2.35;;
43124;SDS011;49182;50.788;7.318;2022-12-24T01:34:55;18.38;;;2.63;;
43124;SDS011;49182;50.788;7.318;2022-12-24T01:37:21;8.85;;;2.10;;
43124;SDS011;49182;50.788;7.318;2022-12-24T01:39:48;18.77;;;3.83;;
43124;SDS011;49182;50.788;7.318;2022-12-24T01:42:21;8.77;;;1.70;;
43124;SDS011;49182;50.788;7.318;2022-12-24T01:44:49;14.43;;;2.30;;
43124;SDS011;49182;50.788;7.318;2022-12-24T01:47:17;12.35;;;2.35;;
43124;SDS011;49182;50.788;7.318;2022-12-24T01:49:47;9.32;;;2.03;;
43124;SDS011;49182;50.788;7.318;2022-12-24T01:52:18;11.77;;;2.58;;
43124;SDS011;49182;50.788;7.318;2022-12-24T01:54:48;10.38;;;1.83;;
43124;SDS011;49182;50.788;7.318;2022-12-24T01:57:18;10.30;;;2.72;;
43124;SDS011;49182;50.788;7.318;2022-12-24T01:59:52;13.63;;;2.08;;
43124;SDS011;49182;50.788;7.318;2022-12-24T02:02:23;12.15;;;2.42;;
43124;SDS011;49182;50.788;7.318;2022-12-24T02:04:52;16.13;;;2.35;;
43124;SDS011;49182;50.788;7.318;2022-12-24T02:07:24;17.02;;;2.53;;
43124;SDS011;49182;50.788;7.318;2022-12-24T02:09:50;13.73;;;2.08;;
43124;SDS011;49182;50.788;7.318;2022-12-24T02:12:22;16.60;;;2.13;;
43124;SDS011;49182;50.788;7.318;2022-12-24T02:14:50;17.08;;;2.92;;
43124;SDS011;49182;50.788;7.318;2022-12-24T02:17:19;18.48;;;2.88;;
43124;SDS011;49182;50.788;7.318;2022-12-24T02:20:08;13.85;;;2.10;;
43124;SDS011;49182;50.788;7.318;2022-12-24T02:22:54;9.00;;;2.10;;
43124;SDS011;49182;50.788;7.318;2022-12-24T02:25:36;16.55;;;2.55;;
43124;SDS011;49182;50.788;7.318;2022-12-24T02:28:20;14.75;;;2.80;;
43124;SDS011;49182;50.788;7.318;2022-12-24T02:31:00;17.77;;;2.35;;
43124;SDS011;49182;50.788;7.318;2022-12-24T02:33:32;10.55;;;2.08;;
43124;SDS011;49182;50.788;7.318;2022-12-24T02:36:05;9.15;;;1.83;;
43124;SDS011;49182;50.788;7.318;2022-12-24T02:38:40;9.13;;;2.25;;
43124;SDS011;49182;50.788;7.318;2022-12-24T02:41:11;11.18;;;3.03;;
43124;SDS011;49182;50.788;7.318;2022-12-24T02:43:43;11.77;;;1.98;;
43124;SDS011;49182;50.788;7.318;2022-12-24T02:46:14;15.88;;;2.30;;
43124;SDS011;49182;50.788;7.318;2022-12-24T02:51:12;13.50;;;2.25;;
43124;SDS011;49182;50.788;7.318;2022-12-24T02:53:39;15.05;;;2.83;;
43124;SDS011;49182;50.788;7.318;2022-12-24T02:56:17;15.85;;;2.45;;
43124;SDS011;49182;50.788;7.318;2022-12-24T02:59:08;11.77;;;2.17;;
43124;SDS011;49182;50.788;7.318;2022-12-24T03:01:49;11.95;;;2.75;;
43124;SDS011;49182;50.788;7.318;2022-12-24T03:04:24;10.20;;;2.22;;
43124;SDS011;49182;50.788;7.318;2022-12-24T03:06:58;9.82;;;1.90;;
43124;SDS011;49182;50.788;7.318;2022-12-24T03:09:32;14.35;;;2.53;;
43124;SDS011;49182;50.788;7.318;2022-12-24T03:12:05;11.50;;;2.03;;
43124;SDS011;49182;50.788;7.318;2022-12-24T03:14:37;15.38;;;2.05;;
43124;SDS011;49182;50.788;7.318;2022-12-24T03:17:07;14.68;;;2.38;;
43124;SDS011;49182;50.788;7.318;2022-12-24T03:19:35;12.25;;;2.17;;
43124;SDS011;49182;50.788;7.318;2022-12-24T03:22:03;11.30;;;2.03;;
43124;SDS011;49182;50.788;7.318;2022-12-24T03:24:34;11.18;;;2.08;;
43124;SDS011;49182;50.788;7.318;2022-12-24T03:27:00;15.45;;;2.28;;
43124;SDS011;49182;50.788;7.318;2022-12-24T03:29:29;14.27;;;1.98;;
43124;SDS011;49182;50.788;7.318;2022-12-24T03:31:58;9.85;;;2.17;;
43124;SDS011;49182;50.788;7.318;2022-12-24T03:34:27;13.32;;;2.28;;
43124;SDS011;49182;50.788;7.318;2022-12-24T03:36:54;10.25;;;2.70;;
43124;SDS011;49182;50.788;7.318;2022-12-24T03:39:21;12.82;;;2.15;;
43124;SDS011;49182;50.788;7.318;2022-12-24T03:41:48;11.40;;;1.95;;
43124;SDS011;49182;50.788;7.318;2022-12-24T03:44:15;13.23;;;1.83;;
43124;SDS011;49182;50.788;7.318;2022-12-24T03:46:41;8.70;;;1.60;;
43124;SDS011;49182;50.788;7.318;2022-12-24T03:49:08;8.98;;;1.60;;
43124;SDS011;49182;50.788;7.318;2022-12-24T03:51:36;8.10;;;1.65;;
43124;SDS011;49182;50.788;7.318;2022-12-24T03:54:02;7.82;;;2.08;;
43124;SDS011;49182;50.788;7.318;2022-12-24T03:56:29;6.55;;;1.40;;
43124;SDS011;49182;50.788;7.318;2022-12-24T03:58:56;10.98;;;1.60;;
43124;SDS011;49182;50.788;7.318;2022-12-24T04:01:22;11.02;;;1.55;;
43124;SDS011;49182;50.788;7.318;2022-12-24T04:03:49;9.07;;;1.63;;
43124;SDS011;49182;50.788;7.318;2022-12-24T04:06:16;7.97;;;1.75;;
43124;SDS011;49182;50.788;7.318;2022-12-24T04:08:44;10.65;;;1.35;;
43124;SDS011;49182;50.788;7.318;2022-12-24T04:11:12;6.22;;;1.40;;
43124;SDS011;49182;50.788;7.318;2022-12-24T04:13:40;11.25;;;2.05;;
43124;SDS011;49182;50.788;7.318;2022-12-24T04:16:07;8.50;;;1.60;;
43124;SDS011;49182;50.788;7.318;2022-12-24T04:18:36;7.97;;;1.70;;
43124;SDS011;49182;50.788;7.318;2022-12-24T04:21:03;6.07;;;2.17;;
43124;SDS011;49182;50.788;7.318;2022-12-24T04:23:31;9.73;;;1.40;;
43124;SDS011;49182;50.788;7.318;2022-12-24T04:25:59;7.80;;;1.70;;
43124;SDS011;49182;50.788;7.318;2022-12-24T04:28:27;5.38;;;1.10;;
43124;SDS011;49182;50.788;7.318;2022-12-24T04:30:56;7.15;;;1.58;;
43124;SDS011;49182;50.788;7.318;2022-12-24T04:33:24;9.95;;;1.88;;
43124;SDS011;49182;50.788;7.318;2022-12-24T04:35:50;9.10;;;1.35;;
43124;SDS011;49182;50.788;7.318;2022-12-24T04:38:17;8.50;;;2.25;;
43124;SDS011;49182;50.788;7.318;2022-12-24T04:40:44;8.73;;;1.60;;
43124;SDS011;49182;50.788;7.318;2022-12-24T04:43:12;4.88;;;1.10;;
43124;SDS011;49182;50.788;7.318;2022-12-24T04:45:39;6.45;;;1.63;;
43124;SDS011;49182;50.788;7.318;2022-12-24T04:48:06;5.63;;;1.38;;
43124;SDS011;49182;50.788;7.318;2022-12-24T04:50:32;8.40;;;1.30;;
43124;SDS011;49182;50.788;7.318;2022-12-24T04:52:59;5.75;;;1.33;;
43124;SDS011;49182;50.788;7.318;2022-12-24T04:55:25;5.10;;;1.30;;
43124;SDS011;49182;50.788;7.318;2022-12-24T04:57:52;8.48;;;1.38;;
43124;SDS011;49182;50.788;7.318;2022-12-24T05:00:20;5.50;;;1.10;;
43124;SDS011;49182;50.788;7.318;2022-12-24T05:02:47;6.10;;;1.23;;
43124;SDS011;49182;50.788;7.318;2022-12-24T05:05:14;5.55;;;1.50;;
43124;SDS011;49182;50.788;7.318;2022-12-24T05:07:40;9.80;;;1.10;;
43124;SDS011;49182;50.788;7.318;2022-12-24T05:10:08;5.80;;;1.33;;
43124;SDS011;49182;50.788;7.318;2022-12-24T05:12:35;4.20;;;0.98;;
43124;SDS011;49182;50.788;7.318;2022-12-24T05:15:02;6.50;;;1.00;;
43124;SDS011;49182;50.788;7.318;2022-12-24T05:17:30;5.20;;;1.02;;
43124;SDS011;49182;50.788;7.318;2022-12-24T05:19:56;3.75;;;1.83;;
43124;SDS011;49182;50.788;7.318;2022-12-24T05:22:23;4.18;;;1.13;;
43124;SDS011;49182;50.788;7.318;2022-12-24T05:24:49;3.97;;;1.02;;
43124;SDS011;49182;50.788;7.318;2022-12-24T05:27:16;4.60;;;0.98;;
43124;SDS011;49182;50.788;7.318;2022-12-24T05:29:43;5.03;;;1.10;;
43124;SDS011;49182;50.788;7.318;2022-12-24T05:32:09;6.15;;;1.20;;
43124;SDS011;49182;50.788;7.318;2022-12-24T05:34:37;5.60;;;1.10;;
43124;SDS011;49182;50.788;7.318;2022-12-24T05:37:04;5.68;;;1.17;;
43124;SDS011;49182;50.788;7.318;2022-12-24T05:39:30;3.63;;;1.00;;
43124;SDS011;49182;50.788;7.318;2022-12-24T05:41:57;6.22;;;1.63;;
43124;SDS011;49182;50.788;7.318;2022-12-24T05:44:24;5.50;;;1.23;;
43124;SDS011;49182;50.788;7.318;2022-12-24T05:46:50;6.15;;;1.40;;
43124;SDS011;49182;50.788;7.318;2022-12-24T05:49:17;5.70;;;0.98;;
43124;SDS011;49182;50.788;7.318;2022-12-24T05:51:45;5.18;;;1.10;;
43124;SDS011;49182;50.788;7.318;2022-12-24T05:54:12;3.72;;;1.08;;
43124;SDS011;49182;50.788;7.318;2022-12-24T05:56:38;7.32;;;1.10;;
43124;SDS011;49182;50.788;7.318;2022-12-24T05:59:05;6.00;;;1.23;;
43124;SDS011;49182;50.788;7.318;2022-12-24T06:01:31;8.35;;;2.97;;
43124;SDS011;49182;50.788;7.318;2022-12-24T06:03:58;6.65;;;1.00;;
43124;SDS011;49182;50.788;7.318;2022-12-24T06:06:25;3.40;;;1.00;;
43124;SDS011;49182;50.788;7.318;2022-12-24T06:08:54;5.28;;;1.02;;
43124;SDS011;49182;50.788;7.318;2022-12-24T06:11:22;9.90;;;1.67;;
43124;SDS011;49182;50.788;7.318;2022-12-24T06:13:51;3.80;;;1.00;;
43124;SDS011;49182;50.788;7.318;2022-12-24T06:16:18;4.05;;;1.13;;
43124;SDS011;49182;50.788;7.318;2022-12-24T06:18:46;4.30;;;1.00;;
43124;SDS011;49182;50.788;7.318;2022-12-24T06:21:13;3.35;;;1.30;;
43124;SDS011;49182;50.788;7.318;2022-12-24T06:23:41;3.58;;;1.30;;
43124;SDS011;49182;50.788;7.318;2022-12-24T06:26:11;4.90;;;1.48;;
43124;SDS011;49182;50.788;7.318;2022-12-24T06:28:39;7.45;;;1.38;;
43124;SDS011;49182;50.788;7.318;2022-12-24T06:31:08;2.85;;;0.85;;
43124;SDS011;49182;50.788;7.318;2022-12-24T06:33:38;4.28;;;1.20;;
43124;SDS011;49182;50.788;7.318;2022-12-24T06:36:05;3.67;;;1.13;;
43124;SDS011;49182;50.788;7.318;2022-12-24T06:38:40;5.28;;;1.50;;
43124;SDS011;49182;50.788;7.318;2022-12-24T06:41:07;5.05;;;1.30;;
43124;SDS011;49182;50.788;7.318;2022-12-24T06:43:35;6.25;;;1.63;;
43124;SDS011;49182;50.788;7.318;2022-12-24T06:46:02;4.80;;;1.70;;
43124;SDS011;49182;50.788;7.318;2022-12-24T06:48:30;5.20;;;1.60;;
43124;SDS011;49182;50.788;7.318;2022-12-24T06:50:56;7.65;;;2.63;;
43124;SDS011;49182;50.788;7.318;2022-12-24T06:53:23;10.25;;;3.15;;
43124;SDS011;49182;50.788;7.318;2022-12-24T06:55:49;5.53;;;1.45;;
43124;SDS011;49182;50.788;7.318;2022-12-24T06:58:16;5.68;;;1.60;;
43124;SDS011;49182;50.788;7.318;2022-12-24T07:00:45;7.00;;;1.85;;
43124;SDS011;49182;50.788;7.318;2022-12-24T07:03:12;6.63;;;2.20;;
43124;SDS011;49182;50.788;7.318;2022-12-24T07:05:39;9.07;;;2.20;;
43124;SDS011;49182;50.788;7.318;2022-12-24T07:08:07;7.15;;;1.98;;
43124;SDS011;49182;50.788;7.318;2022-12-24T07:10:34;6.32;;;2.20;;
43124;SDS011;49182;50.788;7.318;2022-12-24T07:13:01;10.45;;;2.30;;
43124;SDS011;49182;50.788;7.318;2022-12-24T07:15:27;6.60;;;1.75;;
43124;SDS011;49182;50.788;7.318;2022-12-24T07:17:55;6.20;;;1.60;;
43124;SDS011;49182;50.788;7.318;2022-12-24T07:20:22;5.95;;;2.13;;
43124;SDS011;49182;50.788;7.318;2022-12-24T07:22:48;6.18;;;2.70;;
43124;SDS011;49182;50.788;7.318;2022-12-24T07:25:15;9.68;;;3.28;;
43124;SDS011;49182;50.788;7.318;2022-12-24T07:27:42;8.65;;;3.25;;
43124;SDS011;49182;50.788;7.318;2022-12-24T07:30:08;10.30;;;3.30;;
43124;SDS011;49182;50.788;7.318;2022-12-24T07:32:36;11.98;;;5.80;;
43124;SDS011;49182;50.788;7.318;2022-12-24T07:35:04;12.73;;;6.78;;
43124;SDS011;49182;50.788;7.318;2022-12-24T07:37:31;16.73;;;6.50;;
43124;SDS011;49182;50.788;7.318;2022-12-24T07:39:58;16.95;;;9.48;;
43124;SDS011;49182;50.788;7.318;2022-12-24T07:42:25;12.55;;;5.68;;
43124;SDS011;49182;50.788;7.318;2022-12-24T07:44:51;14.02;;;5.28;;
43124;SDS011;49182;50.788;7.318;2022-12-24T07:47:18;10.45;;;4.05;;
43124;SDS011;49182;50.788;7.318;2022-12-24T07:49:44;9.43;;;4.35;;
43124;SDS011;49182;50.788;7.318;2022-12-24T07:52:12;9.88;;;4.03;;
43124;SDS011;49182;50.788;7.318;2022-12-24T07:54:39;10.40;;;4.07;;
43124;SDS011;49182;50.788;7.318;2022-12-24T07:57:06;10.25;;;5.70;;
43124;SDS011;49182;50.788;7.318;2022-12-24T07:59:33;11.60;;;4.50;;
43124;SDS011;49182;50.788;7.318;2022-12-24T08:01:59;8.63;;;3.55;;
43124;SDS011;49182;50.788;7.318;2022-12-24T08:04:26;12.02;;;4.45;;
43124;SDS011;49182;50.788;7.318;2022-12-24T08:06:56;8.15;;;3.83;;
43124;SDS011;49182;50.788;7.318;2022-12-24T08:09:23;9.35;;;4.03;;
43124;SDS011;49182;50.788;7.318;2022-12-24T08:11:50;9.27;;;3.80;;
43124;SDS011;49182;50.788;7.318;2022-12-24T08:14:18;7.07;;;2.90;;
43124;SDS011;49182;50.788;7.318;2022-12-24T08:16:45;8.35;;;3.20;;
43124;SDS011;49182;50.788;7.318;2022-12-24T08:19:12;7.75;;;2.65;;
43124;SDS011;49182;50.788;7.318;2022-12-24T08:21:38;7.90;;;4.30;;
43124;SDS011;49182;50.788;7.318;2022-12-24T08:24:05;7.30;;;3.25;;
43124;SDS011;49182;50.788;7.318;2022-12-24T08:26:33;4.78;;;2.30;;
43124;SDS011;49182;50.788;7.318;2022-12-24T08:29:00;7.47;;;2.15;;
43124;SDS011;49182;50.788;7.318;2022-12-24T08:31:27;6.18;;;1.58;;
43124;SDS011;49182;50.788;7.318;2022-12-24T08:33:53;4.75;;;1.90;;
43124;SDS011;49182;50.788;7.318;2022-12-24T08:36:20;4.85;;;2.20;;
43124;SDS011;49182;50.788;7.318;2022-12-24T08:38:47;5.32;;;1.88;;
43124;SDS011;49182;50.788;7.318;2022-12-24T08:41:14;6.82;;;2.63;;
43124;SDS011;49182;50.788;7.318;2022-12-24T08:43:42;5.05;;;2.10;;
43124;SDS011;49182;50.788;7.318;2022-12-24T08:46:08;9.25;;;2.90;;
43124;SDS011;49182;50.788;7.318;2022-12-24T08:48:35;11.57;;;3.65;;
43124;SDS011;49182;50.788;7.318;2022-12-24T08:51:05;10.82;;;3.80;;
43124;SDS011;49182;50.788;7.318;2022-12-24T08:53:32;9.50;;;3.47;;
43124;SDS011;49182;50.788;7.318;2022-12-24T08:56:00;11.20;;;4.25;;
43124;SDS011;49182;50.788;7.318;2022-12-24T08:58:27;9.82;;;3.95;;
43124;SDS011;49182;50.788;7.318;2022-12-24T09:00:55;9.45;;;4.00;;
43124;SDS011;49182;50.788;7.318;2022-12-24T09:03:22;10.82;;;3.72;;
43124;SDS011;49182;50.788;7.318;2022-12-24T09:05:53;8.53;;;3.73;;
43124;SDS011;49182;50.788;7.318;2022-12-24T09:08:20;17.42;;;4.97;;
43124;SDS011;49182;50.788;7.318;2022-12-24T09:10:47;10.07;;;4.50;;
43124;SDS011;49182;50.788;7.318;2022-12-24T09:13:13;16.55;;;6.68;;
43124;SDS011;49182;50.788;7.318;2022-12-24T09:15:40;12.45;;;4.82;;
43124;SDS011;49182;50.788;7.318;2022-12-24T09:18:09;11.15;;;5.25;;
43124;SDS011;49182;50.788;7.318;2022-12-24T09:20:35;10.68;;;5.50;;
43124;SDS011;49182;50.788;7.318;2022-12-24T09:23:03;13.25;;;5.25;;
43124;SDS011;49182;50.788;7.318;2022-12-24T09:25:30;11.20;;;4.63;;
43124;SDS011;49182;50.788;7.318;2022-12-24T09:27:57;10.35;;;4.20;;
43124;SDS011;49182;50.788;7.318;2022-12-24T09:30:23;9.05;;;4.25;;
43124;SDS011;49182;50.788;7.318;2022-12-24T09:32:50;8.73;;;3.42;;
43124;SDS011;49182;50.788;7.318;2022-12-24T09:35:18;9.23;;;3.53;;
43124;SDS011;49182;50.788;7.318;2022-12-24T09:37:44;11.25;;;4.22;;
43124;SDS011;49182;50.788;7.318;2022-12-24T09:40:14;17.63;;;5.63;;
43124;SDS011;49182;50.788;7.318;2022-12-24T09:42:50;14.35;;;5.35;;
43124;SDS011;49182;50.788;7.318;2022-12-24T09:45:19;14.13;;;4.45;;
43124;SDS011;49182;50.788;7.318;2022-12-24T09:47:50;10.93;;;5.10;;
43124;SDS011;49182;50.788;7.318;2022-12-24T09:50:23;13.60;;;4.30;;
43124;SDS011;49182;50.788;7.318;2022-12-24T09:52:56;12.07;;;5.05;;
43124;SDS011;49182;50.788;7.318;2022-12-24T09:55:27;15.07;;;4.55;;
43124;SDS011;49182;50.788;7.318;2022-12-24T09:57:59;7.38;;;3.25;;
43124;SDS011;49182;50.788;7.318;2022-12-24T10:00:30;7.97;;;3.05;;
43124;SDS011;49182;50.788;7.318;2022-12-24T10:03:00;12.32;;;3.70;;
43124;SDS011;49182;50.788;7.318;2022-12-24T10:05:31;11.10;;;2.50;;
43124;SDS011;49182;50.788;7.318;2022-12-24T10:08:06;12.80;;;2.70;;
43124;SDS011;49182;50.788;7.318;2022-12-24T10:10:45;8.73;;;2.88;;
43124;SDS011;49182;50.788;7.318;2022-12-24T10:13:17;12.95;;;3.90;;
43124;SDS011;49182;50.788;7.318;2022-12-24T10:15:53;9.82;;;3.50;;
43124;SDS011;49182;50.788;7.318;2022-12-24T10:18:26;11.13;;;3.38;;
43124;SDS011;49182;50.788;7.318;2022-12-24T10:21:04;14.90;;;4.95;;
43124;SDS011;49182;50.788;7.318;2022-12-24T10:23:39;20.23;;;5.80;;
43124;SDS011;49182;50.788;7.318;2022-12-24T10:26:14;21.65;;;8.10;;
43124;SDS011;49182;50.788;7.318;2022-12-24T10:28:49;25.40;;;10.63;;
43124;SDS011;49182;50.788;7.318;2022-12-24T10:31:18;21.58;;;7.70;;
43124;SDS011;49182;50.788;7.318;2022-12-24T10:33:49;20.85;;;5.25;;
43124;SDS011;49182;50.788;7.318;2022-12-24T10:36:24;18.67;;;5.18;;
43124;SDS011;49182;50.788;7.318;2022-12-24T10:38:53;20.75;;;6.32;;
43124;SDS011;49182;50.788;7.318;2022-12-24T10:41:20;24.23;;;6.25;;
43124;SDS011;49182;50.788;7.318;2022-12-24T10:43:49;20.30;;;5.05;;
43124;SDS011;49182;50.788;7.318;2022-12-24T10:46:17;15.63;;;3.20;;
43124;SDS011;49182;50.788;7.318;2022-12-24T10:48:50;16.15;;;4.20;;
43124;SDS011;49182;50.788;7.318;2022-12-24T10:51:21;18.58;;;4.22;;
43124;SDS011;49182;50.788;7.318;2022-12-24T10:53:58;15.40;;;2.95;;
43124;SDS011;49182;50.788;7.318;2022-12-24T10:56:26;16.55;;;3.53;;
43124;SDS011;49182;50.788;7.318;2022-12-24T10:58:53;19.58;;;3.38;;
43124;SDS011;49182;50.788;7.318;2022-12-24T11:01:20;29.30;;;3.53;;
43124;SDS011;49182;50.788;7.318;2022-12-24T11:04:13;17.40;;;3.85;;
43124;SDS011;49182;50.788;7.318;2022-12-24T11:06:47;11.32;;;2.88;;
43124;SDS011;49182;50.788;7.318;2022-12-24T11:09:19;20.33;;;3.97;;
43124;SDS011;49182;50.788;7.318;2022-12-24T11:11:47;18.25;;;4.25;;
43124;SDS011;49182;50.788;7.318;2022-12-24T11:14:14;17.98;;;3.45;;
43124;SDS011;49182;50.788;7.318;2022-12-24T11:16:47;20.95;;;3.22;;
43124;SDS011;49182;50.788;7.318;2022-12-24T11:19:17;14.40;;;3.20;;
43124;SDS011;49182;50.788;7.318;2022-12-24T11:21:45;14.00;;;2.95;;
43124;SDS011;49182;50.788;7.318;2022-12-24T11:24:20;18.67;;;4.45;;
43124;SDS011;49182;50.788;7.318;2022-12-24T11:26:49;19.13;;;4.32;;
43124;SDS011;49182;50.788;7.318;2022-12-24T11:29:18;14.63;;;2.80;;
43124;SDS011;49182;50.788;7.318;2022-12-24T11:31:46;15.27;;;3.08;;
43124;SDS011;49182;50.788;7.318;2022-12-24T11:34:17;14.15;;;3.67;;
43124;SDS011;49182;50.788;7.318;2022-12-24T11:36:49;16.30;;;4.40;;
43124;SDS011;49182;50.788;7.318;2022-12-24T11:39:18;13.85;;;3.35;;
43124;SDS011;49182;50.788;7.318;2022-12-24T11:41:47;15.30;;;3.00;;
43124;SDS011;49182;50.788;7.318;2022-12-24T11:44:14;15.85;;;2.90;;
43124;SDS011;49182;50.788;7.318;2022-12-24T11:46:41;13.73;;;2.70;;
43124;SDS011;49182;50.788;7.318;2022-12-24T11:49:16;15.52;;;2.80;;
43124;SDS011;49182;50.788;7.318;2022-12-24T11:54:49;18.52;;;3.72;;
43124;SDS011;49182;50.788;7.318;2022-12-24T11:57:22;16.77;;;3.28;;
43124;SDS011;49182;50.788;7.318;2022-12-24T11:59:56;13.40;;;2.95;;
43124;SDS011;49182;50.788;7.318;2022-12-24T12:02:24;20.75;;;3.55;;
43124;SDS011;49182;50.788;7.318;2022-12-24T12:04:54;13.88;;;3.05;;
43124;SDS011;49182;50.788;7.318;2022-12-24T12:07:25;15.55;;;3.22;;
43124;SDS011;49182;50.788;7.318;2022-12-24T12:09:58;18.30;;;3.28;;
43124;SDS011;49182;50.788;7.318;2022-12-24T12:12:29;15.85;;;3.00;;
43124;SDS011;49182;50.788;7.318;2022-12-24T12:14:59;14.48;;;3.65;;
43124;SDS011;49182;50.788;7.318;2022-12-24T12:17:29;12.13;;;3.90;;
43124;SDS011;49182;50.788;7.318;2022-12-24T12:20:01;17.65;;;2.88;;
43124;SDS011;49182;50.788;7.318;2022-12-24T12:22:34;19.23;;;3.17;;
43124;SDS011;49182;50.788;7.318;2022-12-24T12:25:15;14.93;;;3.67;;
43124;SDS011;49182;50.788;7.318;2022-12-24T12:27:45;20.48;;;6.68;;
43124;SDS011;49182;50.788;7.318;2022-12-24T12:30:15;13.93;;;3.78;;
43124;SDS011;49182;50.788;7.318;2022-12-24T12:32:46;37.08;;;14.82;;
43124;SDS011;49182;50.788;7.318;2022-12-24T12:35:20;15.00;;;4.85;;
43124;SDS011;49182;50.788;7.318;2022-12-24T12:37:51;26.35;;;9.25;;
43124;SDS011;49182;50.788;7.318;2022-12-24T12:40:24;20.10;;;6.45;;
43124;SDS011;49182;50.788;7.318;2022-12-24T12:43:10;12.05;;;4.05;;
43124;SDS011;49182;50.788;7.318;2022-12-24T12:45:48;16.60;;;4.45;;
43124;SDS011;49182;50.788;7.318;2022-12-24T12:48:27;17.23;;;3.42;;
43124;SDS011;49182;50.788;7.318;2022-12-24T12:51:05;18.92;;;4.90;;
43124;SDS011;49182;50.788;7.318;2022-12-24T12:53:38;18.88;;;3.72;;
43124;SDS011;49182;50.788;7.318;2022-12-24T12:56:20;23.08;;;5.65;;
43124;SDS011;49182;50.788;7.318;2022-12-24T12:58:54;16.58;;;3.95;;
43124;SDS011;49182;50.788;7.318;2022-12-24T13:01:39;16.50;;;3.63;;
43124;SDS011;49182;50.788;7.318;2022-12-24T13:07:31;14.02;;;3.55;;
43124;SDS011;49182;50.788;7.318;2022-12-24T13:10:24;27.15;;;6.60;;
43124;SDS011;49182;50.788;7.318;2022-12-24T13:13:12;22.52;;;5.43;;
43124;SDS011;49182;50.788;7.318;2022-12-24T13:15:59;19.42;;;4.85;;
43124;SDS011;49182;50.788;7.318;2022-12-24T13:18:43;25.55;;;6.88;;
43124;SDS011;49182;50.788;7.318;2022-12-24T13:21:20;13.18;;;3.10;;
43124;SDS011;49182;50.788;7.318;2022-12-24T13:23:48;15.77;;;3.67;;
43124;SDS011;49182;50.788;7.318;2022-12-24T13:26:16;14.18;;;3.08;;
43124;SDS011;49182;50.788;7.318;2022-12-24T13:28:44;25.83;;;3.38;;
43124;SDS011;49182;50.788;7.318;2022-12-24T13:31:27;17.33;;;4.22;;
43124;SDS011;49182;50.788;7.318;2022-12-24T13:33:55;13.43;;;3.50;;
43124;SDS011;49182;50.788;7.318;2022-12-24T13:36:24;14.93;;;3.60;;
43124;SDS011;49182;50.788;7.318;2022-12-24T13:38:51;21.23;;;3.72;;
43124;SDS011;49182;50.788;7.318;2022-12-24T13:41:36;16.33;;;3.80;;
43124;SDS011;49182;50.788;7.318;2022-12-24T13:44:20;16.90;;;3.92;;
43124;SDS011;49182;50.788;7.318;2022-12-24T13:46:49;11.73;;;2.50;;
43124;SDS011;49182;50.788;7.318;2022-12-24T13:49:18;15.80;;;3.90;;
43124;SDS011;49182;50.788;7.318;2022-12-24T13:51:47;14.15;;;3.65;;
43124;SDS011;49182;50.788;7.318;2022-12-24T13:54:14;17.20;;;3.33;;
43124;SDS011;49182;50.788;7.318;2022-12-24T13:56:47;16.50;;;3.40;;
43124;SDS011;49182;50.788;7.318;2022-12-24T13:59:23;27.20;;;3.22;;
43124;SDS011;49182;50.788;7.318;2022-12-24T14:02:04;13.63;;;3.63;;
43124;SDS011;49182;50.788;7.318;2022-12-24T14:04:42;16.80;;;2.85;;
43124;SDS011;49182;50.788;7.318;2022-12-24T14:07:09;16.50;;;3.60;;
43124;SDS011;49182;50.788;7.318;2022-12-24T14:09:36;19.00;;;5.57;;
43124;SDS011;49182;50.788;7.318;2022-12-24T14:12:13;13.13;;;3.88;;
43124;SDS011;49182;50.788;7.318;2022-12-24T14:14:43;14.18;;;3.22;;
43124;SDS011;49182;50.788;7.318;2022-12-24T14:17:12;22.08;;;7.43;;
43124;SDS011;49182;50.788;7.318;2022-12-24T14:19:46;38.15;;;17.13;;
43124;SDS011;49182;50.788;7.318;2022-12-24T14:22:24;36.10;;;13.63;;
43124;SDS011;49182;50.788;7.318;2022-12-24T14:24:54;27.27;;;8.13;;
43124;SDS011;49182;50.788;7.318;2022-12-24T14:27:23;19.80;;;6.05;;
43124;SDS011;49182;50.788;7.318;2022-12-24T14:29:58;29.35;;;11.65;;
43124;SDS011;49182;50.788;7.318;2022-12-24T14:32:32;23.52;;;6.07;;
43124;SDS011;49182;50.788;7.318;2022-12-24T14:37:31;21.58;;;8.20;;
43124;SDS011;49182;50.788;7.318;2022-12-24T14:40:00;22.33;;;6.25;;
43124;SDS011;49182;50.788;7.318;2022-12-24T14:42:29;20.02;;;4.93;;
43124;SDS011;49182;50.788;7.318;2022-12-24T14:45:09;20.63;;;7.40;;
43124;SDS011;49182;50.788;7.318;2022-12-24T14:47:45;33.58;;;12.85;;
43124;SDS011;49182;50.788;7.318;2022-12-24T14:50:26;17.52;;;6.25;;
43124;SDS011;49182;50.788;7.318;2022-12-24T14:53:04;17.33;;;4.97;;
43124;SDS011;49182;50.788;7.318;2022-12-24T14:55:45;25.48;;;6.35;;
43124;SDS011;49182;50.788;7.318;2022-12-24T14:58:25;16.20;;;3.90;;
43124;SDS011;49182;50.788;7.318;2022-12-24T15:03:24;16.92;;;5.07;;
43124;SDS011;49182;50.788;7.318;2022-12-24T15:05:53;20.23;;;7.13;;
43124;SDS011;49182;50.788;7.318;2022-12-24T15:08:26;22.50;;;6.13;;
43124;SDS011;49182;50.788;7.318;2022-12-24T15:10:58;16.83;;;5.22;;